Hauptseite
METAR-TAF:

METAR-TAF

Flughäfen :

Flughafen Grenchen

Grenchen, Schweiz

Breite: 47-10-53N, Länge: 007-24-59E, Höhe: 430 m

Beobachtung

Neuester Wetterbericht von vor 11 Minuten, um 13:20 UTC
Wind 9 kt aus Ost/Nordost
Temperatur 23°C
Luftfeuchtigkeit 33%
Luftdruck 1013 hPa
Sichtweite 10 km oder mehr
keine Wolken unter 1500 m und keine Kumulonimbus oder Gewitterwolken

METAR: LSZG 151320Z 07009KT CAVOK 23/06 Q1013 NOSIG

Zeit: 15:31 (13:31 UTC)

Prognose

Neuester Wetterbericht von vor 2 Stunden und 6 Minuten, um 11:25 UTC
Gültige Prognose vom 15 um 12 UTC bis 15 um 21 UTC
Wind 5 kt aus Ost/Nordost
Sichtweite 10 km oder mehr
keine Wolken unter 1500 m und keine Kumulonimbus oder Gewitterwolken
Übergehend zu
vom 15 um 20 UTC bis 15 um 21 UTC
Sichtweite: 7000 m

TAF: LSZG 151125Z 1512/1521 07005KT CAVOK BECMG 1520/1521 7000 NSC

Wetterbeobachtungen und Prognosen von mehr als 4000 Flughäfen (METAR und TAF Bericht).

Die verfügbaren Stationen werden durch gelbe und rote Markierungen auf der Karte dargestellt.

Führen Sie die Maus auf sie, um den Namen der Station zu sehen.

Darauf klicken, um die Beobachtung von Wetterbeobachtungen und Prognosen zu sehen.

Um die Karte zu ändern : klicken Sie auf den grünen Tasten mit einem schwarzen Kreuz Zum Vergrößern, auf den grünen Button mit einem Gedankenstrich zu verkleinern, oder auf die grünen Pfeile für benachbarte Karten.


METAR-TAF: